sensor_id;sensor_type;location;lat;lon;timestamp;temperature;humidity
68274;SHT30;55104;47.356;19.448;2023-08-06T00:02:00;20.06;97.46
68274;SHT30;55104;47.356;19.448;2023-08-06T00:05:02;20.03;97.69
68274;SHT30;55104;47.356;19.448;2023-08-06T00:08:05;20.02;97.67
68274;SHT30;55104;47.356;19.448;2023-08-06T00:11:06;19.89;97.81
68274;SHT30;55104;47.356;19.448;2023-08-06T00:14:09;19.90;98.03
68274;SHT30;55104;47.356;19.448;2023-08-06T00:17:11;19.96;98.10
68274;SHT30;55104;47.356;19.448;2023-08-06T00:20:13;19.93;98.03
68274;SHT30;55104;47.356;19.448;2023-08-06T00:23:16;19.90;98.07
68274;SHT30;55104;47.356;19.448;2023-08-06T00:26:19;19.92;97.99
68274;SHT30;55104;47.356;19.448;2023-08-06T00:29:21;19.95;97.90
68274;SHT30;55104;47.356;19.448;2023-08-06T00:32:24;19.95;97.91
68274;SHT30;55104;47.356;19.448;2023-08-06T00:35:26;19.93;97.86
68274;SHT30;55104;47.356;19.448;2023-08-06T00:38:28;19.95;97.97
68274;SHT30;55104;47.356;19.448;2023-08-06T00:41:30;19.93;98.11
68274;SHT30;55104;47.356;19.448;2023-08-06T00:44:32;19.92;98.19
68274;SHT30;55104;47.356;19.448;2023-08-06T00:47:35;19.95;98.17
68274;SHT30;55104;47.356;19.448;2023-08-06T00:50:37;19.92;98.21
68274;SHT30;55104;47.356;19.448;2023-08-06T00:53:40;19.92;98.34
68274;SHT30;55104;47.356;19.448;2023-08-06T00:56:43;19.90;98.26
68274;SHT30;55104;47.356;19.448;2023-08-06T00:59:45;19.90;98.23
68274;SHT30;55104;47.356;19.448;2023-08-06T01:02:48;19.87;98.39
68274;SHT30;55104;47.356;19.448;2023-08-06T01:05:50;19.92;98.30
68274;SHT30;55104;47.356;19.448;2023-08-06T01:08:58;19.93;98.31
68274;SHT30;55104;47.356;19.448;2023-08-06T01:12:09;19.96;98.19
68274;SHT30;55104;47.356;19.448;2023-08-06T01:15:22;19.99;98.04
68274;SHT30;55104;47.356;19.448;2023-08-06T01:18:26;19.97;98.21
68274;SHT30;55104;47.356;19.448;2023-08-06T01:21:28;19.99;98.33
68274;SHT30;55104;47.356;19.448;2023-08-06T01:24:30;20.02;98.21
68274;SHT30;55104;47.356;19.448;2023-08-06T01:27:48;20.02;98.16
68274;SHT30;55104;47.356;19.448;2023-08-06T01:30:52;19.93;98.48
68274;SHT30;55104;47.356;19.448;2023-08-06T01:33:58;19.96;98.24
68274;SHT30;55104;47.356;19.448;2023-08-06T01:37:02;19.90;98.15
68274;SHT30;55104;47.356;19.448;2023-08-06T01:40:11;19.89;98.04
68274;SHT30;55104;47.356;19.448;2023-08-06T01:43:14;19.89;98.11
68274;SHT30;55104;47.356;19.448;2023-08-06T01:46:16;19.89;98.19
68274;SHT30;55104;47.356;19.448;2023-08-06T01:49:18;19.86;98.44
68274;SHT30;55104;47.356;19.448;2023-08-06T01:52:22;19.87;98.60
68274;SHT30;55104;47.356;19.448;2023-08-06T01:55:24;19.89;98.20
68274;SHT30;55104;47.356;19.448;2023-08-06T01:58:26;19.79;98.46
68274;SHT30;55104;47.356;19.448;2023-08-06T02:01:28;19.82;98.00
68274;SHT30;55104;47.356;19.448;2023-08-06T02:04:30;19.83;97.77
68274;SHT30;55104;47.356;19.448;2023-08-06T02:07:33;19.75;98.04
68274;SHT30;55104;47.356;19.448;2023-08-06T02:10:35;19.78;98.02
68274;SHT30;55104;47.356;19.448;2023-08-06T02:13:37;19.71;98.25
68274;SHT30;55104;47.356;19.448;2023-08-06T02:16:39;19.75;98.24
68274;SHT30;55104;47.356;19.448;2023-08-06T02:19:41;19.74;98.32
68274;SHT30;55104;47.356;19.448;2023-08-06T02:22:45;19.72;98.47
68274;SHT30;55104;47.356;19.448;2023-08-06T02:25:47;19.65;98.57
68274;SHT30;55104;47.356;19.448;2023-08-06T02:28:50;19.72;98.17
68274;SHT30;55104;47.356;19.448;2023-08-06T02:31:52;19.65;98.15
68274;SHT30;55104;47.356;19.448;2023-08-06T02:34:54;19.61;98.48
68274;SHT30;55104;47.356;19.448;2023-08-06T02:37:56;19.68;98.45
68274;SHT30;55104;47.356;19.448;2023-08-06T02:40:58;19.72;98.41
68274;SHT30;55104;47.356;19.448;2023-08-06T02:44:00;19.69;98.24
68274;SHT30;55104;47.356;19.448;2023-08-06T02:47:03;19.69;98.21
68274;SHT30;55104;47.356;19.448;2023-08-06T02:50:05;19.71;98.34
68274;SHT30;55104;47.356;19.448;2023-08-06T02:53:08;19.76;98.02
68274;SHT30;55104;47.356;19.448;2023-08-06T02:56:11;19.75;98.29
68274;SHT30;55104;47.356;19.448;2023-08-06T02:59:32;19.74;98.43
68274;SHT30;55104;47.356;19.448;2023-08-06T03:02:42;19.74;98.65
68274;SHT30;55104;47.356;19.448;2023-08-06T03:06:00;19.69;98.28
68274;SHT30;55104;47.356;19.448;2023-08-06T03:09:12;19.64;98.24
68274;SHT30;55104;47.356;19.448;2023-08-06T03:12:14;19.69;98.24
68274;SHT30;55104;47.356;19.448;2023-08-06T03:15:16;19.68;98.24
68274;SHT30;55104;47.356;19.448;2023-08-06T03:18:20;19.69;98.25
68274;SHT30;55104;47.356;19.448;2023-08-06T03:21:24;19.74;98.31
68274;SHT30;55104;47.356;19.448;2023-08-06T03:24:26;19.68;98.42
68274;SHT30;55104;47.356;19.448;2023-08-06T03:27:29;19.65;98.26
68274;SHT30;55104;47.356;19.448;2023-08-06T03:30:31;19.65;98.11
68274;SHT30;55104;47.356;19.448;2023-08-06T03:33:33;19.64;98.15
68274;SHT30;55104;47.356;19.448;2023-08-06T03:36:37;19.62;98.22
68274;SHT30;55104;47.356;19.448;2023-08-06T03:39:41;19.62;98.36
68274;SHT30;55104;47.356;19.448;2023-08-06T03:42:43;19.62;98.18
68274;SHT30;55104;47.356;19.448;2023-08-06T03:45:45;19.54;97.99
68274;SHT30;55104;47.356;19.448;2023-08-06T03:48:47;19.54;97.97
68274;SHT30;55104;47.356;19.448;2023-08-06T03:51:49;19.48;98.10
68274;SHT30;55104;47.356;19.448;2023-08-06T03:54:52;19.53;98.02
68274;SHT30;55104;47.356;19.448;2023-08-06T03:57:54;19.50;98.12
68274;SHT30;55104;47.356;19.448;2023-08-06T04:01:00;19.47;98.06
68274;SHT30;55104;47.356;19.448;2023-08-06T04:04:08;19.48;98.06
68274;SHT30;55104;47.356;19.448;2023-08-06T04:07:10;19.50;97.90
68274;SHT30;55104;47.356;19.448;2023-08-06T04:10:12;19.41;97.99
68274;SHT30;55104;47.356;19.448;2023-08-06T04:13:14;19.48;97.94
68274;SHT30;55104;47.356;19.448;2023-08-06T04:16:16;19.46;98.01
68274;SHT30;55104;47.356;19.448;2023-08-06T04:19:19;19.48;98.01
68274;SHT30;55104;47.356;19.448;2023-08-06T04:22:21;19.44;97.83
68274;SHT30;55104;47.356;19.448;2023-08-06T04:25:23;19.38;97.85
68274;SHT30;55104;47.356;19.448;2023-08-06T04:28:25;19.26;98.48
68274;SHT30;55104;47.356;19.448;2023-08-06T04:31:28;19.28;98.37
68274;SHT30;55104;47.356;19.448;2023-08-06T04:34:31;19.30;98.25
68274;SHT30;55104;47.356;19.448;2023-08-06T04:37:33;19.28;97.92
68274;SHT30;55104;47.356;19.448;2023-08-06T04:40:36;19.20;97.91
68274;SHT30;55104;47.356;19.448;2023-08-06T04:43:38;19.26;97.75
68274;SHT30;55104;47.356;19.448;2023-08-06T04:46:40;19.21;97.89
68274;SHT30;55104;47.356;19.448;2023-08-06T04:49:43;19.17;97.90
68274;SHT30;55104;47.356;19.448;2023-08-06T04:52:45;19.16;97.76
68274;SHT30;55104;47.356;19.448;2023-08-06T04:55:47;19.14;97.68
68274;SHT30;55104;47.356;19.448;2023-08-06T04:58:50;19.11;97.91
68274;SHT30;55104;47.356;19.448;2023-08-06T05:01:52;19.06;98.18
68274;SHT30;55104;47.356;19.448;2023-08-06T05:04:54;19.09;98.07
68274;SHT30;55104;47.356;19.448;2023-08-06T05:07:57;19.10;97.81
68274;SHT30;55104;47.356;19.448;2023-08-06T05:10:59;19.10;97.85
68274;SHT30;55104;47.356;19.448;2023-08-06T05:14:01;19.02;98.47
68274;SHT30;55104;47.356;19.448;2023-08-06T05:17:03;18.95;98.41
68274;SHT30;55104;47.356;19.448;2023-08-06T05:20:06;18.79;97.99
68274;SHT30;55104;47.356;19.448;2023-08-06T05:23:09;18.77;98.09
68274;SHT30;55104;47.356;19.448;2023-08-06T05:26:11;18.73;98.01
68274;SHT30;55104;47.356;19.448;2023-08-06T05:29:13;18.59;98.62
68274;SHT30;55104;47.356;19.448;2023-08-06T05:32:15;18.56;98.59
68274;SHT30;55104;47.356;19.448;2023-08-06T05:35:17;18.48;97.91
68274;SHT30;55104;47.356;19.448;2023-08-06T05:38:19;18.48;97.73
68274;SHT30;55104;47.356;19.448;2023-08-06T05:41:21;18.37;97.54
68274;SHT30;55104;47.356;19.448;2023-08-06T05:44:23;18.31;97.36
68274;SHT30;55104;47.356;19.448;2023-08-06T05:47:25;18.28;97.65
68274;SHT30;55104;47.356;19.448;2023-08-06T05:50:27;18.14;97.69
68274;SHT30;55104;47.356;19.448;2023-08-06T05:53:29;18.11;98.06
68274;SHT30;55104;47.356;19.448;2023-08-06T05:56:31;18.16;97.92
68274;SHT30;55104;47.356;19.448;2023-08-06T05:59:33;18.13;97.23
68274;SHT30;55104;47.356;19.448;2023-08-06T06:02:35;18.06;97.41
68274;SHT30;55104;47.356;19.448;2023-08-06T06:05:38;18.03;97.41
68274;SHT30;55104;47.356;19.448;2023-08-06T06:08:44;17.99;96.95
68274;SHT30;55104;47.356;19.448;2023-08-06T06:11:47;18.09;96.83
68274;SHT30;55104;47.356;19.448;2023-08-06T06:14:50;17.97;96.98
68274;SHT30;55104;47.356;19.448;2023-08-06T06:17:52;18.06;96.90
68274;SHT30;55104;47.356;19.448;2023-08-06T06:20:55;18.04;96.80
68274;SHT30;55104;47.356;19.448;2023-08-06T06:23:56;18.04;96.57
68274;SHT30;55104;47.356;19.448;2023-08-06T06:26:59;17.96;96.70
68274;SHT30;55104;47.356;19.448;2023-08-06T06:30:01;17.87;96.86
68274;SHT30;55104;47.356;19.448;2023-08-06T06:33:03;17.83;96.79
68274;SHT30;55104;47.356;19.448;2023-08-06T06:36:05;17.94;96.73
68274;SHT30;55104;47.356;19.448;2023-08-06T06:39:09;18.03;96.98
68274;SHT30;55104;47.356;19.448;2023-08-06T06:42:11;18.13;96.97
68274;SHT30;55104;47.356;19.448;2023-08-06T06:45:18;18.16;95.94
68274;SHT30;55104;47.356;19.448;2023-08-06T06:48:21;18.21;96.14
68274;SHT30;55104;47.356;19.448;2023-08-06T06:51:23;18.14;95.71
68274;SHT30;55104;47.356;19.448;2023-08-06T06:54:25;18.11;95.78
68274;SHT30;55104;47.356;19.448;2023-08-06T06:57:27;18.16;96.41
68274;SHT30;55104;47.356;19.448;2023-08-06T07:00:29;18.14;96.15
68274;SHT30;55104;47.356;19.448;2023-08-06T07:03:31;18.01;96.70
68274;SHT30;55104;47.356;19.448;2023-08-06T07:06:33;17.78;95.68
68274;SHT30;55104;47.356;19.448;2023-08-06T07:09:35;17.78;96.10
68274;SHT30;55104;47.356;19.448;2023-08-06T07:12:37;17.71;95.68
68274;SHT30;55104;47.356;19.448;2023-08-06T07:15:39;17.82;95.89
68274;SHT30;55104;47.356;19.448;2023-08-06T07:18:42;17.87;95.70
68274;SHT30;55104;47.356;19.448;2023-08-06T07:21:44;17.94;95.64
68274;SHT30;55104;47.356;19.448;2023-08-06T07:24:46;17.90;95.52
68274;SHT30;55104;47.356;19.448;2023-08-06T07:27:48;17.89;94.61
68274;SHT30;55104;47.356;19.448;2023-08-06T07:30:50;17.75;94.61
68274;SHT30;55104;47.356;19.448;2023-08-06T07:33:53;17.71;95.25
68274;SHT30;55104;47.356;19.448;2023-08-06T07:36:55;17.68;95.24
68274;SHT30;55104;47.356;19.448;2023-08-06T07:39:57;17.66;95.49
68274;SHT30;55104;47.356;19.448;2023-08-06T07:42:59;17.64;95.12
68274;SHT30;55104;47.356;19.448;2023-08-06T07:46:01;17.82;95.21
68274;SHT30;55104;47.356;19.448;2023-08-06T07:49:04;18.09;94.43
68274;SHT30;55104;47.356;19.448;2023-08-06T07:52:06;17.96;93.93
68274;SHT30;55104;47.356;19.448;2023-08-06T07:55:08;18.07;94.42
68274;SHT30;55104;47.356;19.448;2023-08-06T07:58:10;18.07;93.30
68274;SHT30;55104;47.356;19.448;2023-08-06T08:01:12;18.07;93.17
68274;SHT30;55104;47.356;19.448;2023-08-06T08:04:15;18.06;93.09
68274;SHT30;55104;47.356;19.448;2023-08-06T08:07:17;18.18;92.92
68274;SHT30;55104;47.356;19.448;2023-08-06T08:10:19;18.04;93.10
68274;SHT30;55104;47.356;19.448;2023-08-06T08:13:21;18.06;93.18
68274;SHT30;55104;47.356;19.448;2023-08-06T08:16:23;18.10;93.68
68274;SHT30;55104;47.356;19.448;2023-08-06T08:19:25;18.00;94.28
68274;SHT30;55104;47.356;19.448;2023-08-06T08:22:27;17.92;93.44
68274;SHT30;55104;47.356;19.448;2023-08-06T08:25:29;17.90;93.48
68274;SHT30;55104;47.356;19.448;2023-08-06T08:28:32;17.93;94.25
68274;SHT30;55104;47.356;19.448;2023-08-06T08:31:35;17.99;94.17
68274;SHT30;55104;47.356;19.448;2023-08-06T08:34:41;17.99;93.07
68274;SHT30;55104;47.356;19.448;2023-08-06T08:37:43;17.92;92.82
68274;SHT30;55104;47.356;19.448;2023-08-06T08:40:46;17.93;93.12
68274;SHT30;55104;47.356;19.448;2023-08-06T08:43:51;18.04;93.58
68274;SHT30;55104;47.356;19.448;2023-08-06T08:46:53;18.09;92.90
68274;SHT30;55104;47.356;19.448;2023-08-06T08:49:57;18.06;92.65
68274;SHT30;55104;47.356;19.448;2023-08-06T08:52:59;18.06;92.63
68274;SHT30;55104;47.356;19.448;2023-08-06T08:56:02;18.21;92.17
68274;SHT30;55104;47.356;19.448;2023-08-06T08:59:05;18.10;91.86
68274;SHT30;55104;47.356;19.448;2023-08-06T09:02:09;18.20;91.41
68274;SHT30;55104;47.356;19.448;2023-08-06T09:05:13;18.01;91.52
68274;SHT30;55104;47.356;19.448;2023-08-06T09:08:18;17.99;91.97
68274;SHT30;55104;47.356;19.448;2023-08-06T09:11:23;17.73;91.86
68274;SHT30;55104;47.356;19.448;2023-08-06T09:14:26;17.69;92.49
68274;SHT30;55104;47.356;19.448;2023-08-06T09:17:28;17.79;92.20
68274;SHT30;55104;47.356;19.448;2023-08-06T09:20:33;17.96;91.77
68274;SHT30;55104;47.356;19.448;2023-08-06T09:23:36;17.94;91.81
68274;SHT30;55104;47.356;19.448;2023-08-06T09:26:40;18.00;92.00
68274;SHT30;55104;47.356;19.448;2023-08-06T09:29:45;17.99;92.29
68274;SHT30;55104;47.356;19.448;2023-08-06T09:32:48;18.01;91.56
68274;SHT30;55104;47.356;19.448;2023-08-06T09:35:53;18.04;91.05
68274;SHT30;55104;47.356;19.448;2023-08-06T09:38:56;18.09;90.71
68274;SHT30;55104;47.356;19.448;2023-08-06T09:42:00;18.01;91.14
68274;SHT30;55104;47.356;19.448;2023-08-06T09:45:06;17.92;91.25
68274;SHT30;55104;47.356;19.448;2023-08-06T09:48:09;17.76;90.83
68274;SHT30;55104;47.356;19.448;2023-08-06T09:51:13;17.75;91.13
68274;SHT30;55104;47.356;19.448;2023-08-06T09:54:16;17.78;91.89
68274;SHT30;55104;47.356;19.448;2023-08-06T09:57:29;17.68;91.41
68274;SHT30;55104;47.356;19.448;2023-08-06T10:00:33;17.71;91.76
68274;SHT30;55104;47.356;19.448;2023-08-06T10:03:40;17.78;92.20
68274;SHT30;55104;47.356;19.448;2023-08-06T10:06:46;17.73;91.21
68274;SHT30;55104;47.356;19.448;2023-08-06T10:09:48;17.82;91.06
68274;SHT30;55104;47.356;19.448;2023-08-06T10:12:52;18.07;90.77
68274;SHT30;55104;47.356;19.448;2023-08-06T10:15:56;18.09;89.72
68274;SHT30;55104;47.356;19.448;2023-08-06T10:18:59;18.17;89.90
68274;SHT30;55104;47.356;19.448;2023-08-06T10:22:12;18.40;89.63
68274;SHT30;55104;47.356;19.448;2023-08-06T10:25:18;18.33;89.39
68274;SHT30;55104;47.356;19.448;2023-08-06T10:28:20;18.36;89.27
68274;SHT30;55104;47.356;19.448;2023-08-06T10:31:53;18.24;89.19
68274;SHT30;55104;47.356;19.448;2023-08-06T10:34:57;18.20;88.15
68274;SHT30;55104;47.356;19.448;2023-08-06T10:38:09;18.30;88.58
68274;SHT30;55104;47.356;19.448;2023-08-06T10:41:37;18.21;87.37
68274;SHT30;55104;47.356;19.448;2023-08-06T10:45:16;18.34;87.83
68274;SHT30;55104;47.356;19.448;2023-08-06T10:48:33;18.33;86.89
68274;SHT30;55104;47.356;19.448;2023-08-06T10:51:36;18.37;86.76
68274;SHT30;55104;47.356;19.448;2023-08-06T10:54:38;18.21;87.19
68274;SHT30;55104;47.356;19.448;2023-08-06T10:57:41;18.27;87.28
68274;SHT30;55104;47.356;19.448;2023-08-06T11:00:43;18.11;87.43
68274;SHT30;55104;47.356;19.448;2023-08-06T11:03:46;18.10;88.35
68274;SHT30;55104;47.356;19.448;2023-08-06T11:06:52;18.04;88.34
68274;SHT30;55104;47.356;19.448;2023-08-06T11:10:01;17.92;88.15
68274;SHT30;55104;47.356;19.448;2023-08-06T11:13:04;17.99;88.79
68274;SHT30;55104;47.356;19.448;2023-08-06T11:16:06;18.13;88.93
68274;SHT30;55104;47.356;19.448;2023-08-06T11:19:08;18.21;88.52
68274;SHT30;55104;47.356;19.448;2023-08-06T11:22:11;18.41;88.11
68274;SHT30;55104;47.356;19.448;2023-08-06T11:25:13;18.52;86.96
68274;SHT30;55104;47.356;19.448;2023-08-06T11:28:15;18.55;85.48
68274;SHT30;55104;47.356;19.448;2023-08-06T11:31:23;18.58;85.13
68274;SHT30;55104;47.356;19.448;2023-08-06T11:34:25;18.75;85.20
68274;SHT30;55104;47.356;19.448;2023-08-06T11:37:27;18.86;84.53
68274;SHT30;55104;47.356;19.448;2023-08-06T11:40:30;18.75;83.24
68274;SHT30;55104;47.356;19.448;2023-08-06T11:43:33;18.72;82.98
68274;SHT30;55104;47.356;19.448;2023-08-06T11:46:54;18.72;83.75
68274;SHT30;55104;47.356;19.448;2023-08-06T11:50:03;18.86;84.30
68274;SHT30;55104;47.356;19.448;2023-08-06T11:53:06;18.95;83.25
68274;SHT30;55104;47.356;19.448;2023-08-06T11:56:08;19.03;83.25
68274;SHT30;55104;47.356;19.448;2023-08-06T11:59:10;18.81;83.21
68274;SHT30;55104;47.356;19.448;2023-08-06T12:02:13;18.82;83.68
68274;SHT30;55104;47.356;19.448;2023-08-06T12:05:16;18.91;82.79
68274;SHT30;55104;47.356;19.448;2023-08-06T12:08:20;18.98;81.86
68274;SHT30;55104;47.356;19.448;2023-08-06T12:11:23;19.04;81.50
68274;SHT30;55104;47.356;19.448;2023-08-06T12:14:25;18.95;81.78
68274;SHT30;55104;47.356;19.448;2023-08-06T12:17:27;18.89;82.48
68274;SHT30;55104;47.356;19.448;2023-08-06T12:20:29;18.65;83.22
68274;SHT30;55104;47.356;19.448;2023-08-06T12:23:31;18.61;83.85
68274;SHT30;55104;47.356;19.448;2023-08-06T12:26:35;18.56;84.06
68274;SHT30;55104;47.356;19.448;2023-08-06T12:29:41;18.34;83.81
68274;SHT30;55104;47.356;19.448;2023-08-06T12:32:43;18.21;84.62
68274;SHT30;55104;47.356;19.448;2023-08-06T12:35:45;18.09;85.15
68274;SHT30;55104;47.356;19.448;2023-08-06T12:38:48;18.20;84.73
68274;SHT30;55104;47.356;19.448;2023-08-06T12:41:49;18.11;84.57
68274;SHT30;55104;47.356;19.448;2023-08-06T12:44:52;18.24;84.05
68274;SHT30;55104;47.356;19.448;2023-08-06T12:47:54;18.31;83.68
68274;SHT30;55104;47.356;19.448;2023-08-06T12:50:57;18.44;82.68
68274;SHT30;55104;47.356;19.448;2023-08-06T12:53:59;18.56;82.47
68274;SHT30;55104;47.356;19.448;2023-08-06T12:57:01;18.54;82.60
68274;SHT30;55104;47.356;19.448;2023-08-06T13:00:04;18.51;82.87
68274;SHT30;55104;47.356;19.448;2023-08-06T13:03:07;18.44;82.66
68274;SHT30;55104;47.356;19.448;2023-08-06T13:06:09;18.54;82.92
68274;SHT30;55104;47.356;19.448;2023-08-06T13:09:12;18.61;82.09
68274;SHT30;55104;47.356;19.448;2023-08-06T13:12:14;18.47;81.98
68274;SHT30;55104;47.356;19.448;2023-08-06T13:15:16;18.40;82.66
68274;SHT30;55104;47.356;19.448;2023-08-06T13:18:19;18.36;82.73
68274;SHT30;55104;47.356;19.448;2023-08-06T13:21:21;18.28;82.02
68274;SHT30;55104;47.356;19.448;2023-08-06T13:24:23;18.51;82.50
68274;SHT30;55104;47.356;19.448;2023-08-06T13:27:25;18.55;81.93
68274;SHT30;55104;47.356;19.448;2023-08-06T13:30:27;18.55;81.73
68274;SHT30;55104;47.356;19.448;2023-08-06T13:33:29;18.44;81.48
68274;SHT30;55104;47.356;19.448;2023-08-06T13:36:31;18.40;82.09
68274;SHT30;55104;47.356;19.448;2023-08-06T13:39:33;18.31;82.04
68274;SHT30;55104;47.356;19.448;2023-08-06T13:42:35;18.37;82.36
68274;SHT30;55104;47.356;19.448;2023-08-06T13:45:37;18.21;84.22
68274;SHT30;55104;47.356;19.448;2023-08-06T13:48:40;18.21;84.79
68274;SHT30;55104;47.356;19.448;2023-08-06T13:51:42;18.01;85.69
68274;SHT30;55104;47.356;19.448;2023-08-06T13:54:44;17.97;85.92
68274;SHT30;55104;47.356;19.448;2023-08-06T13:57:46;17.90;85.51
68274;SHT30;55104;47.356;19.448;2023-08-06T14:00:48;17.79;85.92
68274;SHT30;55104;47.356;19.448;2023-08-06T14:03:50;17.79;86.88
68274;SHT30;55104;47.356;19.448;2023-08-06T14:06:52;17.65;88.30
68274;SHT30;55104;47.356;19.448;2023-08-06T14:09:55;17.58;89.57
68274;SHT30;55104;47.356;19.448;2023-08-06T14:12:59;17.72;88.83
68274;SHT30;55104;47.356;19.448;2023-08-06T14:16:11;17.71;89.12
68274;SHT30;55104;47.356;19.448;2023-08-06T14:19:13;17.62;87.73
68274;SHT30;55104;47.356;19.448;2023-08-06T14:22:15;17.62;87.14
68274;SHT30;55104;47.356;19.448;2023-08-06T14:25:17;17.62;87.85
68274;SHT30;55104;47.356;19.448;2023-08-06T14:28:20;17.62;87.67
68274;SHT30;55104;47.356;19.448;2023-08-06T14:31:21;17.65;88.02
68274;SHT30;55104;47.356;19.448;2023-08-06T14:34:24;17.64;87.03
68274;SHT30;55104;47.356;19.448;2023-08-06T14:37:26;17.64;87.47
68274;SHT30;55104;47.356;19.448;2023-08-06T14:40:28;17.73;87.55
68274;SHT30;55104;47.356;19.448;2023-08-06T14:43:35;17.69;87.05
68274;SHT30;55104;47.356;19.448;2023-08-06T14:46:37;17.65;87.87
68274;SHT30;55104;47.356;19.448;2023-08-06T14:49:39;17.75;87.18
68274;SHT30;55104;47.356;19.448;2023-08-06T14:52:42;17.76;86.90
68274;SHT30;55104;47.356;19.448;2023-08-06T14:55:44;17.73;86.51
68274;SHT30;55104;47.356;19.448;2023-08-06T14:58:46;17.81;87.01
68274;SHT30;55104;47.356;19.448;2023-08-06T15:01:48;17.76;86.53
68274;SHT30;55104;47.356;19.448;2023-08-06T15:04:50;17.81;86.13
68274;SHT30;55104;47.356;19.448;2023-08-06T15:07:52;17.87;85.84
68274;SHT30;55104;47.356;19.448;2023-08-06T15:10:55;17.90;86.21
68274;SHT30;55104;47.356;19.448;2023-08-06T15:13:57;18.04;85.06
68274;SHT30;55104;47.356;19.448;2023-08-06T15:16:59;17.94;85.31
68274;SHT30;55104;47.356;19.448;2023-08-06T15:20:02;18.01;83.49
68274;SHT30;55104;47.356;19.448;2023-08-06T15:23:04;18.01;82.66
68274;SHT30;55104;47.356;19.448;2023-08-06T15:26:07;18.06;83.12
68274;SHT30;55104;47.356;19.448;2023-08-06T15:29:09;18.11;82.58
68274;SHT30;55104;47.356;19.448;2023-08-06T15:32:11;18.16;81.47
68274;SHT30;55104;47.356;19.448;2023-08-06T15:35:15;18.24;81.68
68274;SHT30;55104;47.356;19.448;2023-08-06T15:38:17;18.20;82.13
68274;SHT30;55104;47.356;19.448;2023-08-06T15:41:19;18.21;81.56
68274;SHT30;55104;47.356;19.448;2023-08-06T15:44:21;18.31;82.20
68274;SHT30;55104;47.356;19.448;2023-08-06T15:47:25;18.33;81.26
68274;SHT30;55104;47.356;19.448;2023-08-06T15:50:27;18.41;80.81
68274;SHT30;55104;47.356;19.448;2023-08-06T15:53:29;18.48;80.68
68274;SHT30;55104;47.356;19.448;2023-08-06T15:56:33;18.51;79.87
68274;SHT30;55104;47.356;19.448;2023-08-06T15:59:35;18.59;80.48
68274;SHT30;55104;47.356;19.448;2023-08-06T16:02:37;18.58;80.32
68274;SHT30;55104;47.356;19.448;2023-08-06T16:05:40;18.52;79.93
68274;SHT30;55104;47.356;19.448;2023-08-06T16:08:42;18.44;79.96
68274;SHT30;55104;47.356;19.448;2023-08-06T16:11:44;18.30;80.53
68274;SHT30;55104;47.356;19.448;2023-08-06T16:14:46;18.30;80.50
68274;SHT30;55104;47.356;19.448;2023-08-06T16:17:49;18.24;80.53
68274;SHT30;55104;47.356;19.448;2023-08-06T16:20:51;18.18;81.38
68274;SHT30;55104;47.356;19.448;2023-08-06T16:23:54;18.31;80.80
68274;SHT30;55104;47.356;19.448;2023-08-06T16:26:57;18.37;80.20
68274;SHT30;55104;47.356;19.448;2023-08-06T16:29:59;18.41;80.25
68274;SHT30;55104;47.356;19.448;2023-08-06T16:33:04;18.41;80.83
68274;SHT30;55104;47.356;19.448;2023-08-06T16:36:06;18.38;80.22
68274;SHT30;55104;47.356;19.448;2023-08-06T16:39:08;18.20;80.39
68274;SHT30;55104;47.356;19.448;2023-08-06T16:42:11;18.16;80.12
68274;SHT30;55104;47.356;19.448;2023-08-06T16:45:13;18.11;80.10
68274;SHT30;55104;47.356;19.448;2023-08-06T16:52:25;18.04;80.11
68274;SHT30;55104;47.356;19.448;2023-08-06T16:55:31;18.00;80.94
68274;SHT30;55104;47.356;19.448;2023-08-06T16:58:33;17.99;80.68
68274;SHT30;55104;47.356;19.448;2023-08-06T17:01:35;18.03;80.16
68274;SHT30;55104;47.356;19.448;2023-08-06T17:04:38;18.06;80.70
68274;SHT30;55104;47.356;19.448;2023-08-06T17:07:40;18.09;80.78
68274;SHT30;55104;47.356;19.448;2023-08-06T17:10:45;18.04;80.57
68274;SHT30;55104;47.356;19.448;2023-08-06T17:13:47;18.03;79.92
68274;SHT30;55104;47.356;19.448;2023-08-06T17:16:49;17.97;80.13
68274;SHT30;55104;47.356;19.448;2023-08-06T17:19:51;18.01;79.83
68274;SHT30;55104;47.356;19.448;2023-08-06T17:22:54;18.06;79.72
68274;SHT30;55104;47.356;19.448;2023-08-06T17:25:56;17.99;80.23
68274;SHT30;55104;47.356;19.448;2023-08-06T17:28:58;18.03;79.73
68274;SHT30;55104;47.356;19.448;2023-08-06T17:32:00;17.99;79.91
68274;SHT30;55104;47.356;19.448;2023-08-06T17:35:02;17.90;80.39
68274;SHT30;55104;47.356;19.448;2023-08-06T17:38:04;17.86;79.85
68274;SHT30;55104;47.356;19.448;2023-08-06T17:41:06;17.79;79.79
68274;SHT30;55104;47.356;19.448;2023-08-06T17:44:08;17.69;80.71
68274;SHT30;55104;47.356;19.448;2023-08-06T17:47:10;17.62;81.11
68274;SHT30;55104;47.356;19.448;2023-08-06T17:50:27;17.49;82.07
68274;SHT30;55104;47.356;19.448;2023-08-06T17:53:29;17.45;82.33
68274;SHT30;55104;47.356;19.448;2023-08-06T17:56:31;17.30;82.98
68274;SHT30;55104;47.356;19.448;2023-08-06T17:59:33;17.30;82.57
68274;SHT30;55104;47.356;19.448;2023-08-06T18:02:36;17.30;82.96
68274;SHT30;55104;47.356;19.448;2023-08-06T18:05:38;17.17;83.55
68274;SHT30;55104;47.356;19.448;2023-08-06T18:08:40;17.13;83.27
68274;SHT30;55104;47.356;19.448;2023-08-06T18:11:42;17.18;82.65
68274;SHT30;55104;47.356;19.448;2023-08-06T18:14:44;17.09;83.31
68274;SHT30;55104;47.356;19.448;2023-08-06T18:17:47;16.94;83.82
68274;SHT30;55104;47.356;19.448;2023-08-06T18:20:49;16.86;84.48
68274;SHT30;55104;47.356;19.448;2023-08-06T18:23:51;16.83;84.64
68274;SHT30;55104;47.356;19.448;2023-08-06T18:26:53;16.75;84.79
68274;SHT30;55104;47.356;19.448;2023-08-06T18:29:56;16.61;85.51
68274;SHT30;55104;47.356;19.448;2023-08-06T18:32:58;16.63;85.02
68274;SHT30;55104;47.356;19.448;2023-08-06T18:36:01;16.55;85.22
68274;SHT30;55104;47.356;19.448;2023-08-06T18:39:03;16.58;85.29
68274;SHT30;55104;47.356;19.448;2023-08-06T18:42:06;16.51;85.44
68274;SHT30;55104;47.356;19.448;2023-08-06T18:45:09;16.44;85.54
68274;SHT30;55104;47.356;19.448;2023-08-06T18:48:11;16.45;85.50
68274;SHT30;55104;47.356;19.448;2023-08-06T18:51:17;16.37;85.58
68274;SHT30;55104;47.356;19.448;2023-08-06T18:54:21;16.38;85.89
68274;SHT30;55104;47.356;19.448;2023-08-06T18:57:25;16.28;85.73
68274;SHT30;55104;47.356;19.448;2023-08-06T19:00:30;16.29;85.92
68274;SHT30;55104;47.356;19.448;2023-08-06T19:03:32;16.37;85.22